地図

経路データ

SID SEASON NUMBER BASIN SUBBASIN NAME ISO_TIME NATURE LAT LON WMO_WIND WMO_PRES WMO_AGENCY TRACK_TYPE DIST2LAND LANDFALL IFLAG USA_AGENCY USA_ATCF_ID USA_LAT USA_LON USA_RECORD USA_STATUS USA_WIND USA_PRES USA_SSHS USA_R34_NE USA_R34_SE USA_R34_SW USA_R34_NW USA_R50_NE USA_R50_SE USA_R50_SW USA_R50_NW USA_R64_NE USA_R64_SE USA_R64_SW USA_R64_NW USA_POCI USA_ROCI USA_RMW USA_EYE TOKYO_LAT TOKYO_LON TOKYO_GRADE TOKYO_WIND TOKYO_PRES TOKYO_R50_DIR TOKYO_R50_LONG TOKYO_R50_SHORT TOKYO_R30_DIR TOKYO_R30_LONG TOKYO_R30_SHORT TOKYO_LAND CMA_LAT CMA_LON CMA_CAT CMA_WIND CMA_PRES HKO_LAT HKO_LON HKO_CAT HKO_WIND HKO_PRES NEWDELHI_LAT NEWDELHI_LON NEWDELHI_GRADE NEWDELHI_WIND NEWDELHI_PRES NEWDELHI_CI NEWDELHI_DP NEWDELHI_POCI REUNION_LAT REUNION_LON REUNION_TYPE REUNION_WIND REUNION_PRES REUNION_TNUM REUNION_CI REUNION_RMW REUNION_R34_NE REUNION_R34_SE REUNION_R34_SW REUNION_R34_NW REUNION_R50_NE REUNION_R50_SE REUNION_R50_SW REUNION_R50_NW REUNION_R64_NE REUNION_R64_SE REUNION_R64_SW REUNION_R64_NW BOM_LAT BOM_LON BOM_TYPE BOM_WIND BOM_PRES BOM_TNUM BOM_CI BOM_RMW BOM_R34_NE BOM_R34_SE BOM_R34_SW BOM_R34_NW BOM_R50_NE BOM_R50_SE BOM_R50_SW BOM_R50_NW BOM_R64_NE BOM_R64_SE BOM_R64_SW BOM_R64_NW BOM_ROCI BOM_POCI BOM_EYE BOM_POS_METHOD BOM_PRES_METHOD NADI_LAT NADI_LON NADI_CAT NADI_WIND NADI_PRES WELLINGTON_LAT WELLINGTON_LON WELLINGTON_WIND WELLINGTON_PRES DS824_LAT DS824_LON DS824_STAGE DS824_WIND DS824_PRES TD9636_LAT TD9636_LON TD9636_STAGE TD9636_WIND TD9636_PRES TD9635_LAT TD9635_LON TD9635_WIND TD9635_PRES TD9635_ROCI NEUMANN_LAT NEUMANN_LON NEUMANN_CLASS NEUMANN_WIND NEUMANN_PRES MLC_LAT MLC_LON MLC_CLASS MLC_WIND MLC_PRES USA_GUST BOM_GUST BOM_GUST_PER REUNION_GUST REUNION_GUST_PER USA_SEAHGT USA_SEARAD_NE USA_SEARAD_SE USA_SEARAD_SW USA_SEARAD_NW STORM_SPEED STORM_DIR
1863259N25280 1863 22 NA NA NOT_NAMED 1863-09-16 00:00:00 TS 24.7000 -79.9000 40 hurdat_atl spur-other 67 55 O_____________ hurdat_atl AL061863 24.7000 -79.9000 TS 40 0 5 355
1863259N25280 1863 22 NA NA NOT_NAMED 1863-09-16 03:00:00 TS 24.9525 -79.9075 spur-other 51 50 P_____________ AL061863 24.9525 -79.9075 TS 40 0 5 2
1863259N25280 1863 22 NA NA NOT_NAMED 1863-09-16 06:00:00 TS 25.2000 -79.9000 40 hurdat_atl spur-other 50 41 O_____________ hurdat_atl AL061863 25.2000 -79.9000 TS 40 0 5 4
1863259N25280 1863 22 NA NA NOT_NAMED 1863-09-16 09:00:00 TS 25.4425 -79.8650 spur-other 41 32 P_____________ AL061863 25.4425 -79.8650 TS 45 0 5 10
1863259N25280 1863 22 NA NA NOT_NAMED 1863-09-16 12:00:00 TS 25.7000 -79.8000 50 hurdat_atl spur-other 32 29 O_____________ hurdat_atl AL061863 25.7000 -79.8000 TS 50 0 6 15
1863259N25280 1863 22 NA NA NOT_NAMED 1863-09-16 15:00:00 TS 25.9850 -79.7075 spur-other 39 39 P_____________ AL061863 25.9850 -79.7075 TS 50 0 6 17
1863259N25280 1863 22 NA NA NOT_NAMED 1863-09-16 18:00:00 TS 26.3000 -79.6000 50 hurdat_atl spur-other 49 49 O_____________ hurdat_atl AL061863 26.3000 -79.6000 TS 50 0 7 17
1863259N25280 1863 22 NA NA NOT_NAMED 1863-09-16 21:00:00 TS 26.6350 -79.4925 spur-other 54 49 P_____________ AL061863 26.6350 -79.4925 TS 55 0 7 14
1863259N25280 1863 22 NA NA NOT_NAMED 1863-09-17 00:00:00 TS 27.0000 -79.4000 60 hurdat_atl spur-other 63 63 O_____________ hurdat_atl AL061863 27.0000 -79.4000 TS 60 0 8 9
1863259N25280 1863 22 NA NA NOT_NAMED 1863-09-17 03:00:00 TS 27.3775 -79.3498 spur-other 90 90 P_____________ AL061863 27.3775 -79.3498 TS 60 0 8 6
1863259N25280 1863 22 NA NA NOT_NAMED 1863-09-17 06:00:00 TS 27.8000 -79.3000 60 hurdat_atl spur-other 108 108 O_____________ hurdat_atl AL061863 27.8000 -79.3000 TS 60 0 9 8
1863259N25280 1863 22 NA NA NOT_NAMED 1863-09-17 09:00:00 TS 28.2625 -79.2075 spur-other 128 126 P_____________ AL061863 28.2625 -79.2075 TS 60 0 10 10
1863259N25280 1863 22 NA NA NOT_NAMED 1863-09-17 12:00:00 TS 28.8000 -79.1000 60 hurdat_atl spur-other 140 140 O_____________ hurdat_atl AL061863 28.8000 -79.1000 TS 60 0 12 9
1863259N25280 1863 22 NA NA NOT_NAMED 1863-09-17 15:00:00 TS 29.4200 -79.0073 spur-other 177 177 P_____________ AL061863 29.4200 -79.0073 TS 60 0 13 8
1863259N25280 1863 22 NA NA NOT_NAMED 1863-09-17 18:00:00 TS 30.1000 -78.9000 60 hurdat_atl spur-other 223 223 O_____________ hurdat_atl AL061863 30.1000 -78.9000 TS 60 0 14 8
1863259N25280 1863 22 NA NA NOT_NAMED 1863-09-17 21:00:00 TS 30.7924 -78.7795 spur-other 230 180 P_____________ AL061863 30.7924 -78.7795 TS 60 0 14 10
1863259N25280 1863 22 NA NA NOT_NAMED 1863-09-18 00:00:00 TS 31.5000 -78.6000 60 hurdat_atl spur-other 180 136 O_____________ hurdat_atl AL061863 31.5000 -78.6000 TS 60 0 15 15
1863259N25280 1863 22 NA NA NOT_NAMED 1863-09-18 03:00:00 TS 32.2000 -78.3299 spur-other 136 111 P_____________ AL061863 32.2000 -78.3299 TS 60 0 15 20
1863259N25280 1863 22 NA NA NOT_NAMED 1863-09-18 06:00:00 TS 32.9000 -78.0000 60 hurdat_atl spur-other 111 48 O_____________ hurdat_atl AL061863 32.9000 -78.0000 TS 60 0 14 21
1863259N25280 1863 22 NA NA NOT_NAMED 1863-09-18 09:00:00 TS 33.5457 -77.7222 spur-other 52 24 P_____________ AL061863 33.5457 -77.7222 TS 60 0 15 23
1863259N25280 1863 22 NA NA NOT_NAMED 1863-09-18 12:00:00 TS 34.3000 -77.3000 60 hurdat_atl spur-other 24 11 O_____________ hurdat_atl AL061863 34.3000 -77.3000 TS 60 0 18 26
1863259N25280 1863 22 NA NA NOT_NAMED 1863-09-18 13:00:00 TS 34.6000 -77.1000 60 hurdat_atl spur-other 11 0 O_____________ hurdat_atl AL061863 34.6000 -77.1000 L TS 60 0 19 26
1863259N25280 1863 22 NA NA NOT_NAMED 1863-09-18 15:00:00 TS 35.1437 -76.8083 spur-other 0 0 P_____________ AL061863 35.1437 -76.8083 TS 55 0 18 19
1863259N25280 1863 22 NA NA NOT_NAMED 1863-09-18 18:00:00 TS 36.0000 -76.5000 50 hurdat_atl spur-other 0 0 O_____________ hurdat_atl AL061863 36.0000 -76.5000 TS 50 0 20 15
1863259N25280 1863 22 NA NA NOT_NAMED 1863-09-18 21:00:00 TS 37.1082 -76.1452 spur-other 17 0 P_____________ AL061863 37.1082 -76.1452 TS 50 0 26 16
1863259N25280 1863 22 NA NA NOT_NAMED 1863-09-19 00:00:00 TS 38.5000 -75.6000 50 hurdat_atl spur-other 0 0 O_____________ hurdat_atl AL061863 38.5000 -75.6000 TS 50 0 33 20
1863259N25280 1863 22 NA NA NOT_NAMED 1863-09-19 03:00:00 TS 40.1752 -74.6839 spur-other 0 0 P_____________ AL061863 40.1752 -74.6839 TS 45 0 39 25
1863259N25280 1863 22 NA NA NOT_NAMED 1863-09-19 06:00:00 TS 42.0000 -73.5000 40 hurdat_atl spur-other 0 O_____________ hurdat_atl AL061863 42.0000 -73.5000 TS 40 0 41 26

IBTrACS Databaseについて

本データベースは、米国NOAAが公開する1842年以降の世界の熱帯低気圧のベストトラックデータアーカイブInternational Best Track Archive for Climate Stewardship (IBTrACS)を、ウェブで閲覧しやすい形式に変換したものです。

最終更新日:2021-10-08